Aviation Digital Data Service (ADDS)

Output produced by METARs form (1701 UTC 20 January 2019)
found at http://www.aviationweather.gov/metar/data/
 
TAF SGAS 201535Z 2018/2118 VRB05KT 9999 BKN020 TX30/2019Z TN21/2109Z 
     BECMG 2019/2022 9999 SCT027 
     BECMG 2101/2105 CAVOK 
     BECMG 2111/2114 15008KT
       
TAF SGES 201535Z 2018/2118 02006KT 9999 BKN020 TX30/2019Z TN21/2109Z 
     BECMG 2020/2022 9999 SCT027 
     BECMG 2102/2106 CAVOK
       
TAF SGCO 201535Z 2018/2118 18003KT 9999 BKN027 TX33/2019Z TN24/2109Z 
     BECMG 2020/2023 9999 BKN027 
     BECMG 2101/2103 9999 SCT027 
     BECMG 2104/2108 CAVOK